Time;durP1;ratioP1;P1;durP2;ratioP2;P2;SDS_P1;SDS_P2;PMS_P1;PMS_P2;Temp;Humidity;BMP_temperature;BMP_pressure;BME280_temperature;BME280_humidity;BME280_pressure;Samples;Min_cycle;Max_cycle;Signal;HPM_P1;HPM_P2
2022/05/04 00:00:35;;;;;;;6.75;1.88;;;14.20;67.20;;;;;;5111209;28;20476;-77
2022/05/04 00:03:01;;;;;;;9.35;2.03;;;14.20;67.40;;;;;;5110528;28;20023;-77
2022/05/04 00:05:26;;;;;;;12.75;2.22;;;14.20;68.00;;;;;;5110483;28;20088;-77
2022/05/04 00:07:52;;;;;;;6.88;1.75;;;14.20;68.60;;;;;;5097777;28;20103;-77
2022/05/04 00:10:18;;;;;;;5.80;2.30;;;14.20;68.80;;;;;;5110738;28;20034;-77
2022/05/04 00:12:44;;;;;;;8.73;2.45;;;14.20;68.80;;;;;;5105775;28;20032;-77
2022/05/04 00:15:10;;;;;;;12.32;2.42;;;14.20;68.90;;;;;;5103288;28;20051;-78
2022/05/04 00:17:36;;;;;;;12.52;3.58;;;14.20;68.60;;;;;;5110392;28;20024;-77
2022/05/04 00:20:02;;;;;;;8.57;2.55;;;14.20;68.50;;;;;;5111168;28;20468;-77
2022/05/04 00:22:28;;;;;;;6.10;1.45;;;14.10;68.40;;;;;;5111010;28;20711;-78
2022/05/04 00:24:53;;;;;;;9.85;2.05;;;14.10;68.40;;;;;;5106554;28;20118;-77
2022/05/04 00:27:19;;;;;;;9.25;2.20;;;14.10;68.40;;;;;;5110555;28;20043;-77
2022/05/04 00:29:46;;;;;;;11.35;2.28;;;14.10;68.40;;;;;;5111154;28;20069;-77
2022/05/04 00:32:12;;;;;;;8.95;1.90;;;14.10;68.20;;;;;;5112519;28;20453;-78
2022/05/04 00:34:39;;;;;;;19.27;2.38;;;14.10;67.80;;;;;;5114659;28;20028;-78
2022/05/04 00:37:05;;;;;;;4.82;1.77;;;14.10;67.60;;;;;;5111663;28;20042;-77
2022/05/04 00:39:31;;;;;;;9.20;1.92;;;14.10;67.90;;;;;;5103201;28;20043;-78
2022/05/04 00:42:11;;;;;;;4.63;2.05;;;14.10;68.20;;;;;;5108290;28;20121;-77
2022/05/04 00:44:38;;;;;;;9.52;2.00;;;14.00;68.20;;;;;;5113770;28;20028;-77
2022/05/04 00:47:05;;;;;;;6.47;1.80;;;14.00;69.10;;;;;;5100769;28;20047;-78
2022/05/04 00:49:31;;;;;;;10.70;2.22;;;14.00;68.60;;;;;;5114318;28;20023;-77
2022/05/04 00:51:56;;;;;;;14.57;2.30;;;14.00;68.70;;;;;;5113392;28;20498;-77
2022/05/04 00:54:23;;;;;;;12.00;2.53;;;13.90;68.70;;;;;;5102372;28;20028;-77
2022/05/04 00:56:49;;;;;;;11.52;2.40;;;14.00;68.90;;;;;;5099217;28;20027;-77
2022/05/04 00:59:15;;;;;;;8.32;1.92;;;14.00;68.90;;;;;;5111944;28;20415;-77
2022/05/04 01:01:42;;;;;;;6.78;1.58;;;14.00;68.90;;;;;;5113839;28;20027;-77
2022/05/04 01:04:07;;;;;;;9.95;2.70;;;14.00;68.90;;;;;;5113999;28;20123;-78
2022/05/04 01:06:33;;;;;;;10.45;2.42;;;14.00;69.00;;;;;;5113288;28;20122;-77
2022/05/04 01:08:59;;;;;;;12.23;2.28;;;13.90;69.00;;;;;;5100416;28;20055;-77
2022/05/04 01:11:25;;;;;;;14.52;2.50;;;14.00;69.10;;;;;;5113841;28;20039;-77
2022/05/04 01:14:12;;;;;;;13.02;2.22;;;13.90;68.90;;;;;;5112754;28;20036;-77
2022/05/04 01:16:43;;;;;;;9.73;2.08;;;13.90;68.90;;;;;;5093576;28;20031;-77
2022/05/04 01:19:10;;;;;;;7.28;1.45;;;13.90;68.90;;;;;;5097637;28;20020;-78
2022/05/04 01:21:36;;;;;;;9.18;1.98;;;14.00;69.00;;;;;;5113500;28;20490;-77
2022/05/04 01:24:02;;;;;;;6.88;1.80;;;13.90;69.30;;;;;;5112712;28;20115;-77
2022/05/04 01:26:28;;;;;;;9.85;1.90;;;13.90;69.40;;;;;;5112912;28;20475;-77
2022/05/04 01:28:54;;;;;;;10.73;1.90;;;13.90;69.50;;;;;;5113222;28;20039;-77
2022/05/04 01:31:19;;;;;;;9.73;2.03;;;13.90;69.40;;;;;;5100956;28;20036;-77
2022/05/04 01:33:45;;;;;;;5.68;1.75;;;13.80;69.70;;;;;;5112022;28;20020;-77
2022/05/04 01:36:11;;;;;;;9.93;2.60;;;13.80;70.30;;;;;;5113422;28;20089;-77
2022/05/04 01:38:36;;;;;;;10.27;1.60;;;13.80;70.60;;;;;;5099744;28;20039;-77
2022/05/04 01:41:03;;;;;;;3.67;1.40;;;13.80;71.10;;;;;;5112484;28;20055;-77
2022/05/04 01:43:28;;;;;;;8.15;1.85;;;13.80;70.80;;;;;;5112865;28;20038;-77
2022/05/04 01:45:54;;;;;;;7.90;1.75;;;13.80;70.60;;;;;;5104085;27;20443;-77
2022/05/04 01:48:21;;;;;;;9.48;2.17;;;13.80;70.60;;;;;;5094280;28;20063;-77
2022/05/04 01:50:46;;;;;;;6.72;1.92;;;13.80;70.10;;;;;;5113053;28;20042;-77
2022/05/04 01:53:12;;;;;;;10.00;2.60;;;13.80;70.20;;;;;;5112980;28;20035;-77
2022/05/04 01:55:39;;;;;;;12.23;1.60;;;13.70;70.10;;;;;;5112450;28;20023;-77
2022/05/04 01:58:05;;;;;;;8.00;2.05;;;13.70;70.60;;;;;;5098665;28;20040;-77
2022/05/04 02:00:31;;;;;;;6.72;1.95;;;13.70;70.80;;;;;;5112841;27;20100;-77
2022/05/04 02:02:58;;;;;;;6.03;1.88;;;13.70;70.90;;;;;;5112223;28;20027;-77
2022/05/04 02:05:25;;;;;;;5.15;1.58;;;13.80;70.60;;;;;;5113178;28;20039;-77
2022/05/04 02:07:50;;;;;;;5.88;1.60;;;13.70;70.30;;;;;;5112811;28;20035;-77
2022/05/04 02:10:16;;;;;;;6.10;1.92;;;13.70;71.30;;;;;;5109292;28;20384;-77
2022/05/04 02:12:45;;;;;;;6.00;1.80;;;13.70;72.70;;;;;;5109003;28;20024;-77
2022/05/04 02:15:11;;;;;;;6.00;1.60;;;13.60;72.90;;;;;;5112440;28;20028;-77
2022/05/04 02:17:38;;;;;;;14.20;2.45;;;13.60;72.90;;;;;;5111895;28;20497;-77
2022/05/04 02:20:04;;;;;;;8.23;1.90;;;13.60;72.80;;;;;;5112403;28;20796;-77
2022/05/04 02:22:31;;;;;;;5.40;1.60;;;13.60;72.50;;;;;;5112097;28;20031;-78
2022/05/04 02:24:57;;;;;;;6.05;1.63;;;13.60;73.00;;;;;;5112700;28;20118;-77
2022/05/04 02:27:23;;;;;;;7.05;1.60;;;13.50;73.10;;;;;;5112540;28;20040;-77
2022/05/04 02:29:49;;;;;;;7.82;1.60;;;13.50;73.00;;;;;;5111956;28;20024;-77
2022/05/04 02:32:14;;;;;;;5.78;1.90;;;13.50;73.80;;;;;;5112176;28;20042;-77
2022/05/04 02:40:11;;;;;;;5.45;1.48;;;13.50;74.20;;;;;;5111930;28;20118;-77
2022/05/04 02:42:37;;;;;;;6.68;1.20;;;13.40;73.50;;;;;;5112147;28;20032;-76
2022/05/04 02:45:04;;;;;;;13.00;2.22;;;13.40;72.80;;;;;;5111291;28;20047;-77
2022/05/04 02:47:30;;;;;;;7.20;2.22;;;13.40;73.70;;;;;;5103365;28;20040;-77
2022/05/04 02:49:55;;;;;;;10.25;1.98;;;13.40;73.90;;;;;;5107034;28;20027;-76
2022/05/04 02:52:21;;;;;;;8.85;2.35;;;13.30;74.00;;;;;;5111492;28;20061;-77
2022/05/04 02:54:47;;;;;;;7.50;1.95;;;13.30;74.20;;;;;;5096654;28;20089;-76
2022/05/04 02:57:12;;;;;;;11.57;2.05;;;13.30;74.30;;;;;;5112043;28;20031;-77
2022/05/04 02:59:38;;;;;;;6.63;1.70;;;13.30;74.30;;;;;;5106881;28;20108;-77
2022/05/04 03:04:48;;;;;;;8.50;1.67;;;13.30;74.00;;;;;;5109712;28;20084;-77
2022/05/04 03:07:14;;;;;;;6.68;1.92;;;13.30;73.90;;;;;;5111581;28;20035;-76
2022/05/04 03:09:39;;;;;;;14.32;2.00;;;13.20;74.10;;;;;;5110895;28;20062;-76
2022/05/04 03:12:06;;;;;;;8.35;2.35;;;13.20;74.20;;;;;;5111313;28;20092;-76
2022/05/04 03:14:31;;;;;;;5.57;1.70;;;13.30;74.20;;;;;;5111604;28;20519;-77
2022/05/04 03:16:57;;;;;;;6.05;1.83;;;13.20;73.90;;;;;;5110051;28;20024;-76
2022/05/04 03:19:24;;;;;;;9.45;2.65;;;13.20;73.00;;;;;;5110473;28;20080;-76
2022/05/04 03:21:52;;;;;;;6.30;1.77;;;13.20;72.70;;;;;;5098887;28;20031;-76
2022/05/04 03:24:19;;;;;;;12.82;1.75;;;13.30;73.30;;;;;;5111490;28;20028;-76
2022/05/04 03:26:45;;;;;;;10.25;1.65;;;13.20;72.70;;;;;;5111050;28;20152;-76
2022/05/04 03:29:11;;;;;;;5.38;1.63;;;13.20;72.40;;;;;;5111578;28;20036;-76
2022/05/04 03:31:37;;;;;;;6.80;2.00;;;13.20;72.20;;;;;;5102906;28;20102;-77
2022/05/04 03:34:04;;;;;;;10.15;2.03;;;13.10;71.70;;;;;;5104648;28;20459;-76
2022/05/04 03:36:30;;;;;;;7.70;1.70;;;13.20;72.20;;;;;;5110825;28;20107;-77
2022/05/04 03:38:55;;;;;;;9.88;1.92;;;13.20;71.20;;;;;;5091050;28;20555;-76
2022/05/04 03:41:22;;;;;;;9.80;2.15;;;13.20;71.20;;;;;;5105188;28;20080;-76
2022/05/04 03:43:48;;;;;;;6.40;2.13;;;13.20;72.30;;;;;;5111561;28;20074;-76
2022/05/04 03:46:22;;;;;;;9.30;2.20;;;13.10;72.60;;;;;;5110988;28;20044;-76
2022/05/04 03:48:52;;;;;;;6.70;1.85;;;13.10;72.60;;;;;;5110900;28;20042;-76
2022/05/04 03:51:21;;;;;;;9.80;2.70;;;13.10;72.30;;;;;;5111172;28;20028;-76
2022/05/04 03:53:56;;;;;;;5.05;1.95;;;13.10;72.20;;;;;;5110595;28;20024;-77
2022/05/04 03:56:22;;;;;;;10.82;2.10;;;13.10;72.20;;;;;;5111005;28;20036;-76
2022/05/04 03:58:48;;;;;;;8.93;2.80;;;13.10;72.70;;;;;;5111104;28;20032;-76
2022/05/04 04:01:14;;;;;;;11.90;2.47;;;13.10;73.00;;;;;;5110379;28;20055;-76
2022/05/04 04:03:39;;;;;;;10.43;1.83;;;13.10;73.20;;;;;;5111293;28;20032;-76
2022/05/04 04:06:05;;;;;;;10.02;2.25;;;13.00;73.60;;;;;;5113070;28;20040;-77
2022/05/04 04:08:34;;;;;;;12.82;2.35;;;13.10;73.70;;;;;;5114521;28;20036;-77
2022/05/04 04:11:00;;;;;;;8.43;2.08;;;13.00;73.90;;;;;;5097695;28;20054;-77
2022/05/04 04:13:26;;;;;;;8.32;2.10;;;13.00;74.00;;;;;;5094512;28;20028;-77
2022/05/04 04:15:52;;;;;;;7.78;2.15;;;13.00;74.10;;;;;;5111713;28;20032;-77
2022/05/04 04:18:25;;;;;;;5.95;1.70;;;12.90;74.10;;;;;;5115046;28;20032;-77
2022/05/04 04:23:41;;;;;;;5.63;1.80;;;13.00;74.40;;;;;;5090055;28;20058;-77
2022/05/04 04:26:13;;;;;;;8.90;1.95;;;13.00;74.70;;;;;;5114685;28;20035;-76
2022/05/04 04:28:42;;;;;;;6.93;1.88;;;12.90;74.50;;;;;;5110674;28;20378;-77
2022/05/04 04:31:11;;;;;;;12.20;2.17;;;12.90;74.70;;;;;;5093852;28;20035;-76
2022/05/04 04:33:40;;;;;;;7.15;2.38;;;12.90;74.80;;;;;;5094827;28;20386;-77
2022/05/04 04:36:06;;;;;;;9.02;2.10;;;12.90;74.60;;;;;;5106846;28;20059;-76
2022/05/04 04:38:31;;;;;;;4.80;2.00;;;12.80;74.30;;;;;;5114675;28;20074;-77
2022/05/04 04:40:57;;;;;;;8.55;2.20;;;12.90;74.30;;;;;;5101883;28;20509;-77
2022/05/04 04:43:23;;;;;;;6.63;2.30;;;12.90;74.70;;;;;;5107269;28;20133;-77
2022/05/04 04:45:52;;;;;;;5.38;1.88;;;12.80;74.70;;;;;;5107781;28;20097;-77
2022/05/04 04:48:18;;;;;;;7.13;2.17;;;12.80;74.80;;;;;;5115092;28;20035;-77
2022/05/04 04:50:44;;;;;;;13.25;2.75;;;12.80;74.80;;;;;;5113784;28;20032;-77
2022/05/04 04:53:10;;;;;;;6.70;1.70;;;12.80;74.70;;;;;;5114718;28;20039;-77
2022/05/04 04:55:36;;;;;;;8.48;2.08;;;12.70;74.70;;;;;;5113408;28;20038;-77
2022/05/04 04:58:02;;;;;;;10.50;2.20;;;12.70;74.70;;;;;;5114058;28;20020;-77
2022/05/04 05:00:28;;;;;;;10.70;2.38;;;12.70;74.40;;;;;;5098636;28;20453;-77
2022/05/04 05:02:54;;;;;;;10.20;3.03;;;12.80;74.10;;;;;;5104456;28;20118;-77
2022/05/04 05:05:19;;;;;;;7.43;2.17;;;12.80;74.00;;;;;;5113601;28;20054;-77
2022/05/04 05:07:48;;;;;;;9.98;2.33;;;12.80;74.50;;;;;;5112759;28;20050;-76
2022/05/04 05:10:14;;;;;;;8.85;2.30;;;12.80;74.70;;;;;;5114513;28;20044;-76
2022/05/04 05:12:39;;;;;;;9.75;2.00;;;12.80;74.70;;;;;;5113333;28;20030;-76
2022/05/04 05:17:50;;;;;;;10.93;1.75;;;12.70;74.70;;;;;;5113303;28;20536;-76
2022/05/04 05:20:16;;;;;;;14.98;1.55;;;12.70;75.00;;;;;;5113050;28;20039;-76
2022/05/04 05:22:42;;;;;;;2.80;1.05;;;12.70;75.00;;;;;;5105801;28;20173;-76
2022/05/04 05:25:08;;;;;;;1.70;1.08;;;12.70;75.60;;;;;;5093111;28;20043;-76
2022/05/04 05:27:33;;;;;;;0.57;0.57;;;12.60;74.60;;;;;;5094748;28;20059;-76
2022/05/04 05:29:59;;;;;;;7.43;2.17;;;12.50;74.70;;;;;;5095273;28;20027;-76
2022/05/04 05:32:25;;;;;;;7.65;2.17;;;12.50;74.40;;;;;;5097199;28;20067;-76
2022/05/04 05:34:50;;;;;;;11.43;2.28;;;12.50;74.40;;;;;;5097966;28;20024;-76
2022/05/04 05:37:22;;;;;;;8.15;1.48;;;12.50;74.40;;;;;;5094704;28;20093;-76
2022/05/04 05:39:48;;;;;;;17.90;1.98;;;12.50;74.60;;;;;;5097153;28;20064;-76
2022/05/04 05:42:14;;;;;;;5.10;1.90;;;12.50;74.70;;;;;;5100464;28;20036;-76
2022/05/04 05:44:41;;;;;;;3.35;1.17;;;12.50;74.70;;;;;;5097971;28;20081;-76
2022/05/04 05:47:07;;;;;;;4.85;1.33;;;12.50;74.70;;;;;;5098315;28;20554;-76
2022/05/04 05:49:33;;;;;;;7.03;2.03;;;12.40;74.50;;;;;;5098426;28;20069;-76
2022/05/04 05:51:58;;;;;;;7.13;2.05;;;12.50;74.50;;;;;;5094616;28;20476;-76
2022/05/04 05:54:24;;;;;;;7.47;2.33;;;12.40;74.30;;;;;;5092728;28;20040;-76
2022/05/04 05:56:50;;;;;;;4.28;1.30;;;12.40;74.30;;;;;;5093319;28;20467;-76
2022/05/04 05:59:15;;;;;;;5.50;1.33;;;12.30;74.20;;;;;;5091283;28;20067;-75
2022/05/04 06:01:44;;;;;;;4.57;1.40;;;12.30;74.10;;;;;;5093702;28;20034;-76
2022/05/04 06:04:10;;;;;;;4.15;1.50;;;12.30;74.10;;;;;;5091711;28;20048;-76
2022/05/04 06:06:36;;;;;;;2.97;1.20;;;12.40;74.30;;;;;;5108717;28;20043;-75
2022/05/04 06:09:02;;;;;;;5.85;1.42;;;12.30;73.90;;;;;;5104416;28;20032;-75
2022/05/04 06:11:28;;;;;;;7.63;1.80;;;12.30;73.70;;;;;;5112080;28;20501;-75
2022/05/04 06:13:54;;;;;;;2.78;1.02;;;12.30;73.80;;;;;;5109668;28;20032;-75
2022/05/04 06:16:23;;;;;;;5.18;1.70;;;12.30;73.70;;;;;;5091872;28;20024;-75
2022/05/04 06:18:48;;;;;;;6.25;1.45;;;12.30;73.60;;;;;;5092160;28;20107;-75
2022/05/04 06:21:14;;;;;;;9.38;1.55;;;12.30;73.60;;;;;;5110059;28;20542;-75
2022/05/04 06:23:40;;;;;;;2.30;1.10;;;12.30;73.40;;;;;;5098021;28;20032;-75
2022/05/04 06:26:05;;;;;;;3.00;1.20;;;12.30;73.70;;;;;;5101873;28;20428;-76
2022/05/04 06:28:31;;;;;;;7.60;1.27;;;12.30;73.60;;;;;;5106425;28;20047;-75
2022/05/04 06:36:28;;;;;;;10.43;1.70;;;12.30;73.50;;;;;;5109356;28;20088;-79
2022/05/04 06:38:54;;;;;;;3.50;1.25;;;12.30;73.40;;;;;;5112537;28;20028;-74
2022/05/04 06:41:20;;;;;;;7.38;1.75;;;12.30;73.70;;;;;;5105509;28;20031;-75
2022/05/04 06:43:48;;;;;;;13.43;2.13;;;12.30;73.50;;;;;;5092134;28;20513;-75
2022/05/04 06:46:15;;;;;;;1.80;1.20;;;12.40;73.60;;;;;;5089256;28;20487;-75
2022/05/04 06:48:41;;;;;;;7.32;1.52;;;12.40;73.50;;;;;;5090145;28;20043;-75
2022/05/04 06:51:07;;;;;;;2.58;0.68;;;12.40;73.40;;;;;;5091741;28;20043;-75
2022/05/04 06:53:33;;;;;;;13.65;1.90;;;12.40;73.60;;;;;;5089387;28;20028;-74
2022/05/04 06:55:59;;;;;;;8.88;1.77;;;12.40;73.20;;;;;;5096479;28;20397;-74
2022/05/04 06:58:25;;;;;;;10.20;1.70;;;12.40;73.10;;;;;;5092721;28;20035;-73
2022/05/04 07:00:50;;;;;;;2.50;1.20;;;12.40;73.20;;;;;;5094610;28;20036;-74
2022/05/04 07:03:21;;;;;;;5.13;1.60;;;12.40;73.20;;;;;;5094602;28;20046;-73
2022/05/04 07:05:47;;;;;;;4.57;1.45;;;12.40;73.20;;;;;;5088396;28;20387;-74
2022/05/04 07:08:13;;;;;;;7.00;1.40;;;12.40;73.10;;;;;;5094992;28;20108;-75
2022/05/04 07:10:38;;;;;;;5.07;1.20;;;12.40;73.20;;;;;;5092665;28;20164;-74
2022/05/04 07:13:04;;;;;;;10.27;1.75;;;12.50;73.30;;;;;;5089455;28;20107;-74
2022/05/04 07:15:30;;;;;;;5.65;1.70;;;12.50;73.00;;;;;;5091102;28;20750;-71
2022/05/04 07:17:58;;;;;;;11.25;1.38;;;12.50;73.40;;;;;;5090423;28;20028;-74
2022/05/04 07:20:24;;;;;;;6.47;2.03;;;12.50;73.10;;;;;;5092347;28;20390;-80
2022/05/04 07:22:50;;;;;;;5.97;1.63;;;12.50;72.30;;;;;;5092745;28;20475;-70
2022/05/04 07:25:16;;;;;;;5.80;1.30;;;12.50;72.90;;;;;;5089281;28;20044;-74
2022/05/04 07:27:42;;;;;;;2.72;1.30;;;12.50;72.90;;;;;;5093541;28;20089;-75
2022/05/04 07:30:08;;;;;;;3.42;1.40;;;12.60;72.80;;;;;;5091098;28;20020;-73
2022/05/04 07:32:36;;;;;;;10.73;1.70;;;12.50;72.90;;;;;;5087454;28;20020;-73
2022/05/04 07:35:05;;;;;;;8.05;1.70;;;12.60;72.80;;;;;;5087245;28;20040;-72
2022/05/04 07:37:30;;;;;;;3.13;1.40;;;12.60;72.70;;;;;;5088044;28;20012;-74
2022/05/04 07:42:41;;;;;;;5.63;1.55;;;12.60;72.30;;;;;;5098722;28;20102;-72
2022/05/04 07:45:09;;;;;;;8.68;1.75;;;12.70;72.00;;;;;;5096962;28;20600;-73
2022/05/04 07:47:36;;;;;;;7.80;1.67;;;12.70;72.60;;;;;;5091041;28;20122;-73
2022/05/04 07:50:07;;;;;;;8.45;1.33;;;12.70;72.70;;;;;;5094022;28;20032;-74
2022/05/04 07:52:34;;;;;;;7.97;1.92;;;12.70;72.70;;;;;;5092637;28;20036;-73
2022/05/04 07:55:00;;;;;;;8.05;1.60;;;12.70;72.30;;;;;;5090574;28;20399;-73
2022/05/04 07:57:26;;;;;;;9.48;1.27;;;12.80;72.00;;;;;;5093458;28;20038;-73
2022/05/04 08:05:23;;;;;;;5.45;1.48;;;12.80;72.10;;;;;;5095534;28;20092;-73
2022/05/04 08:07:48;;;;;;;6.30;1.85;;;12.80;72.10;;;;;;5098681;28;20109;-73
2022/05/04 08:10:14;;;;;;;8.68;1.95;;;12.80;72.00;;;;;;5095871;28;20463;-73
2022/05/04 08:12:40;;;;;;;11.77;1.92;;;12.90;71.70;;;;;;5093262;28;20085;-73
2022/05/04 08:15:07;;;;;;;6.65;1.55;;;13.00;71.30;;;;;;5109060;28;20065;-72
2022/05/04 08:17:33;;;;;;;12.63;2.17;;;13.10;71.50;;;;;;5111500;28;20118;-74
2022/05/04 08:19:59;;;;;;;7.45;1.75;;;13.10;71.30;;;;;;5112294;28;20107;-73
2022/05/04 08:22:26;;;;;;;10.45;1.77;;;13.10;71.20;;;;;;5093198;28;20054;-73
2022/05/04 08:24:51;;;;;;;8.88;1.67;;;13.20;71.30;;;;;;5099153;28;20028;-72
2022/05/04 08:27:17;;;;;;;6.45;2.13;;;13.20;71.00;;;;;;5094365;28;20120;-73
2022/05/04 08:29:44;;;;;;;10.30;2.10;;;13.30;70.90;;;;;;5106802;28;20024;-73
2022/05/04 08:32:10;;;;;;;9.07;1.65;;;13.40;70.40;;;;;;5103970;28;20035;-73
2022/05/04 08:34:36;;;;;;;6.88;1.65;;;13.40;70.10;;;;;;5114116;28;20028;-73
2022/05/04 08:37:02;;;;;;;8.63;1.60;;;13.40;69.60;;;;;;5109708;28;20066;-73
2022/05/04 08:39:28;;;;;;;10.70;1.70;;;13.50;69.40;;;;;;5105683;28;20039;-73
2022/05/04 08:41:54;;;;;;;8.63;1.73;;;13.50;68.80;;;;;;5109535;28;20384;-73
2022/05/04 08:44:19;;;;;;;8.05;1.48;;;13.50;68.60;;;;;;5100585;28;20469;-73
2022/05/04 08:46:45;;;;;;;7.53;2.10;;;13.60;68.90;;;;;;5092637;28;20052;-73
2022/05/04 08:49:12;;;;;;;8.23;2.05;;;13.50;68.50;;;;;;5100714;28;20024;-73
2022/05/04 08:51:40;;;;;;;5.75;1.85;;;13.60;69.20;;;;;;5102036;28;20157;-73
2022/05/04 08:54:07;;;;;;;5.18;1.10;;;13.60;69.10;;;;;;5091426;28;20364;-73
2022/05/04 08:56:34;;;;;;;2.85;1.40;;;13.60;70.60;;;;;;5094643;28;20032;-73
2022/05/04 08:59:04;;;;;;;5.75;1.65;;;13.60;70.80;;;;;;5094804;28;20437;-73
2022/05/04 09:01:37;;;;;;;4.78;1.25;;;13.50;70.10;;;;;;5090676;28;20418;-74
2022/05/04 09:04:03;;;;;;;5.28;1.75;;;13.60;70.60;;;;;;5093998;28;20421;-73
2022/05/04 09:06:33;;;;;;;6.47;2.00;;;13.60;69.70;;;;;;5093913;28;20061;-73
2022/05/04 09:09:10;;;;;;;7.53;1.67;;;13.50;70.00;;;;;;5098816;28;20031;-73
2022/05/04 09:11:40;;;;;;;10.35;1.73;;;13.50;69.30;;;;;;5097641;28;20028;-73
2022/05/04 09:14:10;;;;;;;8.23;1.50;;;13.60;69.30;;;;;;5101244;28;20061;-73
2022/05/04 09:16:36;;;;;;;6.32;1.60;;;13.60;69.60;;;;;;5098131;28;20024;-73
2022/05/04 09:19:09;;;;;;;9.10;1.60;;;13.70;69.20;;;;;;5101596;28;20795;-73
2022/05/04 09:21:36;;;;;;;5.05;1.45;;;13.80;69.00;;;;;;5105000;28;20031;-69
2022/05/04 09:24:02;;;;;;;11.73;1.80;;;13.80;68.60;;;;;;5107160;28;20064;-69
2022/05/04 09:26:28;;;;;;;6.65;1.70;;;13.90;68.60;;;;;;5109360;28;20088;-68
2022/05/04 09:29:04;;;;;;;9.68;1.83;;;13.90;68.40;;;;;;5106904;28;20023;-69
2022/05/04 09:31:33;;;;;;;1.95;0.88;;;13.90;69.00;;;;;;5103589;28;20032;-66
2022/05/04 09:34:02;;;;;;;6.18;1.38;;;13.90;71.30;;;;;;5101950;28;20106;-69
2022/05/04 09:45:15;;;;;;;9.45;1.95;;;13.90;69.70;;;;;;5101758;28;20034;-76
2022/05/04 09:47:46;;;;;;;12.18;2.17;;;14.00;68.90;;;;;;5100988;28;20094;-75
2022/05/04 09:50:14;;;;;;;3.13;1.30;;;14.00;69.10;;;;;;5103444;28;20035;-72
2022/05/04 09:52:42;;;;;;;4.93;1.60;;;14.10;69.10;;;;;;5089241;28;20059;-72
2022/05/04 09:55:25;;;;;;;6.88;1.40;;;14.20;68.90;;;;;;5088674;28;20480;-72
2022/05/04 09:57:55;;;;;;;6.13;1.53;;;14.20;68.60;;;;;;5092344;28;20016;-70
2022/05/04 10:00:24;;;;;;;4.88;1.52;;;14.30;69.00;;;;;;5088797;28;20063;-72
2022/05/04 10:02:52;;;;;;;12.50;1.77;;;14.30;68.90;;;;;;5089443;28;20520;-72
2022/05/04 10:05:20;;;;;;;9.82;2.03;;;14.40;69.00;;;;;;5089475;28;20032;-72
2022/05/04 10:07:51;;;;;;;5.30;1.33;;;14.40;68.70;;;;;;5089008;28;20131;-72
2022/05/04 10:10:19;;;;;;;6.50;1.40;;;14.50;68.50;;;;;;5089046;28;20028;-72
2022/05/04 10:12:45;;;;;;;7.72;1.38;;;14.50;68.20;;;;;;5089040;28;20057;-72
2022/05/04 10:15:16;;;;;;;10.73;1.70;;;14.50;68.20;;;;;;5088772;28;20040;-72
2022/05/04 10:17:44;;;;;;;2.70;1.40;;;14.60;68.00;;;;;;5089425;28;20028;-71
2022/05/04 10:20:16;;;;;;;5.68;1.67;;;14.60;68.10;;;;;;5089842;28;20499;-71
2022/05/04 10:23:00;;;;;;;6.03;1.63;;;14.60;67.80;;;;;;5104572;28;20120;-73
2022/05/04 10:25:26;;;;;;;5.57;1.52;;;14.70;67.80;;;;;;5105723;28;20034;-74
2022/05/04 10:28:04;;;;;;;7.53;1.65;;;14.70;67.50;;;;;;5094067;28;20395;-73
2022/05/04 10:30:30;;;;;;;7.20;1.83;;;14.80;67.10;;;;;;5090122;28;20053;-73
2022/05/04 10:33:09;;;;;;;7.28;1.75;;;14.80;67.70;;;;;;5094985;28;20111;-75
2022/05/04 10:35:38;;;;;;;5.13;1.30;;;14.80;67.10;;;;;;5107709;28;20134;-72
2022/05/04 10:38:06;;;;;;;7.47;1.55;;;14.90;67.30;;;;;;5111065;28;20034;-70
2022/05/04 10:40:34;;;;;;;7.32;1.52;;;14.90;66.70;;;;;;5098935;28;20123;-70
2022/05/04 10:43:03;;;;;;;3.35;1.50;;;14.90;66.20;;;;;;5098252;28;20024;-70
2022/05/04 10:45:49;;;;;;;9.70;1.65;;;14.90;67.60;;;;;;5110699;28;20397;-72
2022/05/04 10:48:20;;;;;;;6.20;2.05;;;14.90;67.00;;;;;;5111238;28;20055;-70
2022/05/04 10:50:50;;;;;;;5.88;1.40;;;14.90;68.60;;;;;;5102090;28;20024;-71
2022/05/04 10:53:28;;;;;;;8.18;1.90;;;14.90;67.40;;;;;;5107584;28;20032;-70
2022/05/04 10:56:03;;;;;;;8.02;1.50;;;15.00;66.90;;;;;;5111481;28;20104;-71
2022/05/04 10:58:37;;;;;;;5.45;1.50;;;15.00;66.80;;;;;;5110657;28;20106;-70
2022/05/04 11:01:06;;;;;;;5.65;1.60;;;15.10;66.40;;;;;;5110660;28;20755;-70
2022/05/04 11:03:36;;;;;;;9.63;2.05;;;15.20;65.90;;;;;;5097389;28;20032;-72
2022/05/04 11:06:11;;;;;;;7.10;1.45;;;15.20;66.00;;;;;;5096705;28;20034;-72
2022/05/04 11:08:45;;;;;;;3.10;1.33;;;15.20;65.50;;;;;;5089923;28;20471;-72
2022/05/04 11:11:12;;;;;;;7.85;1.92;;;15.30;65.40;;;;;;5087482;28;20059;-72
2022/05/04 11:13:38;;;;;;;6.15;2.22;;;15.40;64.80;;;;;;5088516;28;20103;-72
2022/05/04 11:16:03;;;;;;;9.35;1.73;;;15.40;67.30;;;;;;5089781;28;20031;-72
2022/05/04 11:18:30;;;;;;;4.75;1.30;;;15.40;67.00;;;;;;5090531;28;20035;-72
2022/05/04 11:20:55;;;;;;;18.83;2.03;;;15.40;67.70;;;;;;5090454;28;20051;-73
2022/05/04 11:23:25;;;;;;;6.72;1.73;;;15.50;66.60;;;;;;5087971;28;20020;-73
2022/05/04 11:25:52;;;;;;;4.35;1.80;;;15.50;65.60;;;;;;5090007;28;20140;-73
2022/05/04 11:28:25;;;;;;;3.60;1.48;;;15.50;65.10;;;;;;5087258;28;20605;-72
2022/05/04 11:30:54;;;;;;;7.05;1.35;;;15.60;65.00;;;;;;5089734;28;20040;-72
2022/05/04 11:33:20;;;;;;;10.77;2.10;;;15.60;65.50;;;;;;5086173;28;20051;-72
2022/05/04 11:35:55;;;;;;;6.28;1.65;;;15.60;65.90;;;;;;5094656;28;20436;-74
2022/05/04 11:38:22;;;;;;;3.47;1.45;;;15.70;65.30;;;;;;5088048;28;20043;-73
2022/05/04 11:40:49;;;;;;;2.25;1.30;;;15.60;64.60;;;;;;5091191;28;20034;-73
2022/05/04 11:43:28;;;;;;;6.70;1.45;;;15.70;64.70;;;;;;5093247;28;20031;-74
2022/05/04 11:45:55;;;;;;;11.07;2.03;;;15.70;66.20;;;;;;5093600;28;20081;-73
2022/05/04 11:48:21;;;;;;;7.25;1.70;;;15.80;65.90;;;;;;5091745;28;20111;-73
2022/05/04 11:50:47;;;;;;;3.88;1.45;;;15.80;67.80;;;;;;5096200;28;20428;-75
2022/05/04 11:53:14;;;;;;;1.25;0.68;;;15.90;65.90;;;;;;5091651;28;20047;-74
2022/05/04 11:55:40;;;;;;;5.32;1.70;;;15.90;70.60;;;;;;5090989;28;20482;-77
2022/05/04 11:58:14;;;;;;;8.80;1.60;;;15.90;70.10;;;;;;5092201;28;20020;-75
2022/05/04 12:00:40;;;;;;;;;;;15.90;67.10;;;;;;5092044;28;20047;-75
2022/05/04 12:03:07;;;;;;;7.25;1.65;;;15.90;66.60;;;;;;5090835;28;19919;-75
2022/05/04 12:05:34;;;;;;;5.28;1.50;;;16.00;67.20;;;;;;5087367;28;20035;-76
2022/05/04 12:08:06;;;;;;;8.00;1.88;;;16.10;66.60;;;;;;5089461;28;20075;-76
2022/05/04 12:10:33;;;;;;;5.97;2.03;;;16.20;67.00;;;;;;5089123;28;20111;-72
2022/05/04 12:13:03;;;;;;;3.42;1.73;;;16.20;67.10;;;;;;5092806;28;20020;-72
2022/05/04 12:15:30;;;;;;;5.47;1.55;;;16.30;67.00;;;;;;5085505;28;20036;-72
2022/05/04 12:18:04;;;;;;;5.60;1.80;;;16.30;67.60;;;;;;5085625;28;20047;-75
2022/05/04 12:20:31;;;;;;;11.88;2.03;;;16.40;66.90;;;;;;5086495;28;20118;-73
2022/05/04 12:22:56;;;;;;;8.55;2.13;;;16.50;66.50;;;;;;5085971;28;20051;-72
2022/05/04 12:25:24;;;;;;;8.25;1.90;;;16.50;66.30;;;;;;5089096;28;20115;-72
2022/05/04 12:27:55;;;;;;;5.28;1.40;;;16.50;65.40;;;;;;5092611;28;20471;-76
2022/05/04 12:33:13;;;;;;;5.57;1.70;;;16.60;65.10;;;;;;5112948;28;20043;-73
2022/05/04 12:35:43;;;;;;;13.88;1.88;;;16.70;65.10;;;;;;5113534;28;20040;-72
2022/05/04 12:38:16;;;;;;;9.65;1.70;;;16.70;64.50;;;;;;5113437;28;20039;-72
2022/05/04 12:40:43;;;;;;;8.63;2.22;;;16.80;64.10;;;;;;5102687;28;20148;-72
2022/05/04 12:43:09;;;;;;;9.32;2.00;;;16.90;64.50;;;;;;5110117;28;20036;-72
2022/05/04 12:45:36;;;;;;;9.40;1.95;;;16.90;63.70;;;;;;5114046;28;20039;-73
2022/05/04 12:48:06;;;;;;;11.95;1.60;;;17.00;64.00;;;;;;5102611;28;20514;-73
2022/05/04 12:50:33;;;;;;;6.60;1.50;;;17.00;65.50;;;;;;5093860;28;20045;-73
2022/05/04 12:52:59;;;;;;;6.57;1.60;;;17.10;66.10;;;;;;5101499;28;20038;-73
2022/05/04 12:58:10;;;;;;;4.07;1.40;;;17.10;66.80;;;;;;5096534;28;20054;-72
2022/05/04 13:00:36;;;;;;;5.78;1.65;;;17.00;66.50;;;;;;5095581;28;20130;-73
2022/05/04 13:03:03;;;;;;;4.10;1.63;;;17.10;66.70;;;;;;5095268;28;20028;-73
2022/05/04 13:05:28;;;;;;;14.25;2.17;;;17.10;65.70;;;;;;5105328;28;20093;-73
2022/05/04 13:07:54;;;;;;;7.55;1.77;;;17.00;65.10;;;;;;5109746;28;20748;-74
2022/05/04 13:10:20;;;;;;;13.13;1.90;;;17.10;63.40;;;;;;5111563;28;20055;-74
2022/05/04 13:12:45;;;;;;;10.15;1.73;;;17.10;63.60;;;;;;5113379;28;20055;-73
2022/05/04 13:15:11;;;;;;;7.28;1.63;;;17.10;63.20;;;;;;5099478;28;20031;-73
2022/05/04 13:17:37;;;;;;;6.00;1.75;;;17.10;62.80;;;;;;5105787;28;20081;-75
2022/05/04 13:20:03;;;;;;;6.65;2.20;;;17.20;62.60;;;;;;5102739;28;20042;-74
2022/05/04 13:22:30;;;;;;;6.78;1.65;;;17.20;63.00;;;;;;5099015;28;20042;-73
2022/05/04 13:24:59;;;;;;;6.80;2.13;;;17.20;63.40;;;;;;5101796;28;20051;-74
2022/05/04 13:27:25;;;;;;;6.88;1.80;;;17.30;63.80;;;;;;5100683;28;20044;-73